Taunton, MA

4:29 AM EDT on October 24, 2014 (GMT -0400)
Wheaton College | Change Station
CLOSE
Current Station
Personal Weather Station
Location: Norton, MA
Elevation: 80 ft
Nearby Weather Stations

Elev 80 ft 41.97 °N, 71.18 °W | Updated 1 second ago

Overcast
Overcast
49.2 °F
Feels Like 47 °F
N
5.0
Wind Variable Wind from NNW
Gusts 14.0 mph

Today
High -- | Low -- °F
--% Chance of Precip.
Yesterday
High -- | Low -- °F
Precip. -- in
7:07 AM 5:49 PM
New Moon, 0% visible
Pressure 29.64 in
Visibility 10.0 miles
Clouds Overcast 1000 ft
Windchill 47 °F
Dew Point 48 °F
Humidity 96%
Rainfall 0.03 in
Snow Depth Not available.
UV 0 out of 12
Pollen .10 out of 12
PM2.5 Good
Flu Activity No Activity
SPECI KTAN 240814Z AUTO 34007KT 10SM OVC010 10/09 A2964 RMK AO2 CIG 007V013 T01000089

More Conditions Fewer Conditions

Pressure 29.64 in
Visibility 10.0 miles
Clouds Overcast 1000 ft
Windchill 47 °F
Dew Point 48 °F
Humidity 96%
Rainfall 0.03 in
Snow Depth Not available.
UV 0 out of 12
Pollen .10 out of 12
PM2.5 Good
Flu Activity No Activity
SPECI KTAN 240814Z AUTO 34007KT 10SM OVC010 10/09 A2964 RMK AO2 CIG 007V013 T01000089

More Conditions Fewer Conditions

10-Day Weather Forecast

Almanac

Astronomy

Oct. 24, 2014 Rise Set
Actual Time 7:07 AM EDT 5:49 PM EDT
Civil Twilight 6:38 AM EDT 6:18 PM EDT
Nautical Twilight 6:06 AM EDT 6:50 PM EDT
Astronomical Twilight 5:34 AM EDT 7:22 PM EDT
Moon 7:43 AM EDT 6:26 PM EDT
Length of Visible Light 11h 39m
Length of Day
10h 42m
Tomorrow will be 2m 37s shorter.
New Moon, 0% of the Moon is Illuminated
Today
New Moon
Oct 30
First Quarter
Nov 6
Full
Nov 14
Last Quarter
Nov 22
New

Today's Extremes

State Highs State Lows

Community

WunderPhotos

Upload Photos

1,764,511 photos uploaded!

WunderBlogs® & News

Nearby

Air Quality

  Air Quality AQ Index Pollutant
Yesterday Good
OZONE
Yesterday Good
PM2.5
Current Good
PM2.5
Friday Good
PM2.5
Friday Good
OZONE

Snow Depth

Station Depth Elevation
No new snow has been reported.

Earthquake Activity

City Distance Mag. Time & Date
No recent earthquake activity has been reported nearby.
Minimum magnitude displayed is 2.5.

Coastal Water Temperatures

Place Temperature
Newport, RI 60.1 °F
Quonset Point, RI 59.0 °F
Conimicut Light, RI 60.1 °F

Nearby Weather Stations